Hlavní strana
METAR-TAF:

METAR-TAF

Letiště :

Kokkola, Finsko

zeměpisná šířka: 63-43N, zeměpisná délka: 023-09E, výška: 25 m

Aktuální stav počasí

Zpráva byla vytvořena před 27 minutami, v 12:20 UTC
Západojihozápadní vítr 9 kt, proměnlivý mezi jihojihozápadním a západním
Teplota 5°C
Vlhkost vzduchu 70%
Tlak 1010 hPa
Viditelnost 10 km a více
Žádná oblačnost pod 1500 m, nevyskytují se cumulonimby.

METAR: EFKK 011220Z AUTO 25009KT 210V280 CAVOK 05/M00 Q1010

Čas: 14:47 (12:47 UTC)


TAF: chybějící

Stav a předpovědi počasí z více než 4 000 letišť (zprávy METAR a TAF).

Červené a žluté tečky na mapě představují dostupné meteorologické stanice.

Když kurzor umístíte na tečku, zobrazí se název stanice.

Pak kliknutím zobrazíte stav a předpověď počasí.

Chcete-li změnit mapu, kliknutím na zelené tlačítko se znaménkem +mapu přiblížíte, kliknutím na zelené tlačítko se znaménkem – mapu oddálíte a kliknutím na zelené šipky přejdete na sousední mapy.


METAR-TAF: